logo dgac
Martes 23 de Julio del 2019
Buscar por aerodromo o helipuerto
Ingrese nombre de aeródromo, localidad o designador OACI:
TAF: TAF SCAR 230601Z 2306/2406 33004KT 9999 OVC025 TN16/2306Z TX18/ 2318Z TEMPO 2308/2314 -SHRA OVC020 BECMG 2316/2318 22010KT BKN025 BECMG 2321/2323 18004KT OVC025 TEMPO 2400/2404 7000 -DZ OVC020
TAF del 23/07/2019 a las 06:01 UTC
Período de validez: desde el 23 a las 06:00 UTC hasta el 24 a las 06:00 UTC
Viento: dirección 330 grados, velocidad 4 nudos
Visibilidad: 10 km o más
Nubes: Cubierto a 2500 pies sobre el nivel del aeródromo
Temperatura mínima: 16ºC el 23 a las 06:00 UTC
Nan: TX18/
Nan: 2318Z
Se espera en forma temporal entre las 08:00 UTC del 23 y las 14:00 UTC del 23:
Débil ChubascosLluvia
Nubes: Cubierto a 2000 pies sobre el nivel del aeródromo
Se espera un cambio entre las 16:00 UTC del 23 y las 18:00 UTC del 23, :
Viento: dirección 220 grados, velocidad 10 nudos
Nubes: Nublado a 2500 pies sobre el nivel del aeródromo
Se espera un cambio entre las 21:00 UTC del 23 y las 23:00 UTC del 23, :
Viento: dirección 180 grados, velocidad 4 nudos
Nubes: Cubierto a 2500 pies sobre el nivel del aeródromo
Se espera en forma temporal entre las 00:00 UTC del 24 y las 04:00 UTC del 24:
Visibilidad: 7000 metros
Débil LLovizna
Nubes: Cubierto a 2000 pies sobre el nivel del aeródromo